Time;durP1;ratioP1;P1;durP2;ratioP2;P2;SDS_P1;SDS_P2;PMS_P1;PMS_P2;Temp;Humidity;BMP_temperature;BMP_pressure;BME280_temperature;BME280_humidity;BME280_pressure;Samples;Min_cycle;Max_cycle;Signal;HPM_P1;HPM_P2
2022/01/25 00:31:17;;;;;;;180.12;29.50;;;;;;;-1.35;100.00;100038.53;4338473;33;20040;-78
2022/01/25 00:33:52;;;;;;;88.37;29.55;;;;;;;-0.63;100.00;100123.22;4345837;33;20065;-82
2022/01/25 00:36:21;;;;;;;122.28;28.25;;;;;;;-0.96;100.00;100075.28;4354421;33;20055;-75
2022/01/25 00:38:49;;;;;;;214.30;28.35;;;;;;;-0.82;100.00;100101.22;4353286;33;20087;-77
2022/01/25 00:41:16;;;;;;;107.22;26.85;;;;;;;-0.60;100.00;100109.72;4353529;32;20062;-78
2022/01/25 00:43:44;;;;;;;190.05;28.38;;;;;;;-0.67;100.00;100108.63;4364466;32;20039;-78
2022/01/25 00:46:12;;;;;;;128.73;27.50;;;;;;;-1.03;100.00;100045.16;4353588;33;20733;-75
2022/01/25 00:56:35;;;;;;;67.78;22.08;;;;;;;-0.56;100.00;100096.03;4353767;33;20462;-77
2022/01/25 00:59:09;;;;;;;125.90;26.40;;;;;;;-0.71;100.00;100096.69;4352296;33;20372;-79
2022/01/25 01:01:37;;;;;;;230.82;30.35;;;;;;;-0.69;100.00;100100.03;4354848;33;20052;-78
2022/01/25 01:04:06;;;;;;;154.95;26.05;;;;;;;-0.64;100.00;100097.75;4354111;33;20053;-77
2022/01/25 01:06:33;;;;;;;121.00;24.30;;;;;;;-0.57;100.00;100104.13;4354191;33;20036;-77
2022/01/25 01:08:59;;;;;;;213.70;28.83;;;;;;;-0.54;100.00;100098.53;4330181;32;20449;-78
2022/01/25 01:11:44;;;;;;;192.43;27.80;;;;;;;-0.50;100.00;100089.28;4326245;33;20840;-78
2022/01/25 01:14:49;;;;;;;119.30;25.60;;;;;;;-0.61;100.00;100066.53;4341525;33;20065;-79
2022/01/25 01:43:57;;;;;;;81.00;20.70;;;;;;;-0.72;100.00;100011.22;4356290;33;20043;-77
2022/01/25 01:46:42;;;;;;;110.12;23.15;;;;;;;-0.45;100.00;100049.97;4355848;33;20438;-77
2022/01/25 01:49:11;;;;;;;103.38;20.40;;;;;;;-0.81;100.00;100007.69;4355063;33;20036;-77
2022/01/25 01:51:42;;;;;;;74.70;19.40;;;;;;;-0.54;100.00;100040.31;4342804;33;20035;-77
2022/01/25 01:54:13;;;;;;;50.92;16.12;;;;;;;-0.50;100.00;100040.84;4356753;33;20027;-78
2022/01/25 01:56:42;;;;;;;70.62;21.40;;;;;;;-0.53;100.00;100019.97;4355623;33;20083;-77
2022/01/25 01:59:12;;;;;;;53.95;17.50;;;;;;;-0.47;100.00;100025.47;4347454;32;20070;-77
2022/01/25 02:01:43;;;;;;;60.22;17.10;;;;;;;-0.97;100.00;99965.25;4342038;33;20036;-77
2022/01/25 02:04:13;;;;;;;59.80;17.50;;;;;;;-0.48;100.00;100037.06;4349485;33;20044;-80
2022/01/25 02:06:39;;;;;;;57.42;15.90;;;;;;;-0.46;100.00;100036.87;4341398;33;20460;-76
2022/01/25 02:09:08;;;;;;;66.35;16.37;;;;;;;-0.42;100.00;100028.47;4328980;33;20052;-77
2022/01/25 02:11:36;;;;;;;49.45;16.27;;;;;;;-0.39;100.00;100022.06;4343040;33;20040;-78
2022/01/25 02:14:07;;;;;;;57.55;17.92;;;;;;;-0.39;100.00;100022.88;4340963;33;20085;-78
2022/01/25 02:24:43;;;;;;;41.92;14.85;;;;;;;-0.21;100.00;100014.06;4340616;32;20048;-78
2022/01/25 02:27:10;;;;;;;36.78;13.52;;;;;;;-0.22;100.00;100017.72;4326993;33;20416;-77
2022/01/25 02:29:37;;;;;;;42.10;15.25;;;;;;;-0.23;100.00;100011.59;4339678;33;20045;-78
2022/01/25 02:32:05;;;;;;;54.60;15.80;;;;;;;-0.56;100.00;99968.19;4326043;32;20048;-77
2022/01/25 02:34:32;;;;;;;35.75;13.57;;;;;;;-0.20;100.00;100005.16;4346639;33;20028;-79
2022/01/25 02:37:11;;;;;;;44.58;14.05;;;;;;;-0.24;100.00;100003.78;4339547;33;20044;-78
2022/01/25 02:39:41;;;;;;;53.87;16.83;;;;;;;-0.22;100.00;99997.38;4326122;33;20062;-81
2022/01/25 02:42:10;;;;;;;39.35;12.73;;;;;;;-0.11;100.00;99993.63;4344797;33;20531;-78
2022/01/25 02:44:37;;;;;;;40.17;14.55;;;;;;;-0.45;100.00;99938.00;4354958;33;20065;-78
2022/01/25 02:49:50;;;;;;;43.83;13.93;;;;;;;-0.47;100.00;99924.94;4341912;32;20384;-77
2022/01/25 02:52:20;;;;;;;37.33;14.93;;;;;;;-0.08;100.00;99988.03;4343201;33;20365;-77
2022/01/25 02:54:47;;;;;;;37.92;12.63;;;;;;;0.02;100.00;99987.06;4340280;33;20027;-78
2022/01/25 02:57:14;;;;;;;43.45;13.82;;;;;;;-0.04;100.00;99983.25;4338533;33;20354;-78
2022/01/25 02:59:40;;;;;;;44.97;15.43;;;;;;;-0.18;100.00;99950.22;4355010;33;20069;-77
2022/01/25 03:02:07;;;;;;;43.47;15.40;;;;;;;-0.04;100.00;99968.19;4355531;33;20032;-78
2022/01/25 03:04:34;;;;;;;67.00;14.77;;;;;;;-0.36;100.00;99931.78;4354266;33;20050;-78
2022/01/25 03:07:01;;;;;;;87.62;17.05;;;;;;;-0.20;100.00;99953.03;4354400;33;20028;-77
2022/01/25 03:09:28;;;;;;;45.35;15.30;;;;;;;-0.05;100.00;99955.94;4352206;33;20050;-77
2022/01/25 03:11:55;;;;;;;44.55;14.85;;;;;;;-0.42;100.00;99917.34;4354532;33;20079;-77
2022/01/25 03:14:26;;;;;;;41.42;13.15;;;;;;;-0.25;100.00;99931.50;4350836;32;20039;-78
2022/01/25 03:19:51;;;;;;;40.03;14.07;;;;;;;0.10;100.00;99979.19;4350371;33;20379;-77
2022/01/25 03:23:05;;;;;;;44.13;14.43;;;;;;;-0.20;100.00;99915.16;4353912;33;20031;-78
2022/01/25 03:25:02;;;;;;;44.22;14.35;;;;;;;0.11;100.00;99967.59;4342289;33;20175;-78
2022/01/25 03:27:28;;;;;;;45.80;15.63;;;;;;;0.04;100.00;99971.88;4354219;33;20058;-78
2022/01/25 03:30:01;;;;;;;56.60;14.68;;;;;;;-0.06;100.00;99970.16;4341498;33;20023;-78
2022/01/25 03:32:28;;;;;;;51.10;15.68;;;;;;;0.04;100.00;99969.22;4353461;33;20043;-81
2022/01/25 03:34:54;;;;;;;44.10;15.10;;;;;;;-0.11;100.00;99956.56;4339729;33;20031;-78
2022/01/25 03:37:20;;;;;;;40.70;13.10;;;;;;;0.06;100.00;99977.81;4353288;33;20459;-78
2022/01/25 03:39:47;;;;;;;45.00;12.30;;;;;;;-0.09;100.00;99912.22;4353108;32;20375;-77
2022/01/25 03:42:15;;;;;;;51.95;15.65;;;;;;;-0.05;100.00;99955.94;4339991;33;20057;-78
2022/01/25 03:44:43;;;;;;;41.80;13.02;;;;;;;-0.31;100.00;99918.09;4342955;33;20033;-77
2022/01/25 03:47:14;;;;;;;39.45;14.18;;;;;;;-0.11;100.00;99956.56;4339935;33;20059;-77
2022/01/25 03:49:49;;;;;;;39.95;14.40;;;;;;;-0.01;100.00;99967.03;4340261;33;20036;-77
2022/01/25 03:52:26;;;;;;;49.67;15.20;;;;;;;-0.02;100.00;99949.50;4338067;33;20036;-77
2022/01/25 03:54:52;;;;;;;48.90;15.65;;;;;;;0.12;100.00;99956.00;4354100;33;20102;-77
2022/01/25 03:57:20;;;;;;;59.13;16.83;;;;;;;0.16;100.00;99936.16;4354438;33;20067;-78
2022/01/25 03:59:46;;;;;;;41.97;15.10;;;;;;;0.24;100.00;99954.75;4353543;33;20052;-77
2022/01/25 04:02:13;;;;;;;54.72;15.25;;;;;;;0.04;100.00;99932.16;4339891;33;20016;-77
2022/01/25 04:04:41;;;;;;;38.03;14.68;;;;;;;-0.15;100.00;99902.28;4351254;32;20036;-78
2022/01/25 04:07:12;;;;;;;35.22;13.52;;;;;;;0.13;100.00;99939.16;4337523;33;20178;-78
2022/01/25 04:09:39;;;;;;;46.83;13.85;;;;;;;0.08;100.00;99925.53;4332840;32;20053;-77
2022/01/25 04:12:07;;;;;;;35.38;11.32;;;;;;;-0.17;100.00;99887.56;4353305;33;20058;-77
2022/01/25 04:14:33;;;;;;;28.75;10.25;;;;;;;0.03;100.00;99930.47;4347021;33;20036;-79
2022/01/25 04:17:04;;;;;;;31.17;11.10;;;;;;;-0.14;100.00;99888.06;4324887;33;20072;-78
2022/01/25 04:19:40;;;;;;;35.83;11.07;;;;;;;-0.01;100.00;99906.16;4338914;33;20032;-77
2022/01/25 04:25:11;;;;;;;32.40;12.05;;;;;;;0.06;100.00;99914.28;4338867;33;20075;-78
2022/01/25 04:27:38;;;;;;;33.35;10.68;;;;;;;-0.23;100.00;99857.25;4339362;33;20046;-77
2022/01/25 04:30:06;;;;;;;26.62;9.70;;;;;;;-0.18;100.00;99878.75;4338003;32;20169;-81
2022/01/25 04:32:40;;;;;;;32.00;12.13;;;;;;;-0.31;100.00;99859.84;4350483;33;20413;-77
2022/01/25 04:35:42;;;;;;;29.58;10.80;;;;;;;-0.02;100.00;99913.28;4341220;33;20039;-76
2022/01/25 04:49:17;;;;;;;30.17;11.68;;;;;;;0.16;100.00;99909.66;4353531;33;20043;-77
2022/01/25 05:02:18;;;;;;;19.37;8.52;;;;;;;0.06;100.00;99845.41;4354654;32;20040;-82
2022/01/25 05:04:51;;;;;;;28.92;10.57;;;;;;;0.17;100.00;99871.59;4342506;33;20783;-78
2022/01/25 05:07:35;;;;;;;26.25;9.05;;;;;;;-0.08;100.00;99870.69;4339372;33;20043;-78
2022/01/25 05:10:03;;;;;;;22.95;9.50;;;;;;;-0.01;100.00;99880.47;4353715;33;20445;-77
2022/01/25 05:13:22;;;;;;;23.92;11.07;;;;;;;-0.28;100.00;99841.00;4355989;33;20431;-77
2022/01/25 05:23:31;;;;;;;30.83;12.88;;;;;;;-0.04;100.00;99890.56;4341079;33;20052;-77
2022/01/25 05:25:57;;;;;;;30.25;11.15;;;;;;;-0.25;100.00;99849.47;4341315;33;20069;-77
2022/01/25 05:28:24;;;;;;;23.80;10.00;;;;;;;-0.27;100.00;99827.63;4350573;33;20047;-78
2022/01/25 05:30:51;;;;;;;22.08;9.90;;;;;;;-0.33;100.00;99820.31;4356198;33;20047;-81
2022/01/25 05:33:17;;;;;;;25.17;9.98;;;;;;;-0.21;100.00;99836.72;4343494;33;20040;-77
2022/01/25 05:35:43;;;;;;;26.75;10.52;;;;;;;-0.31;100.00;99818.34;4355319;33;20040;-77
2022/01/25 05:38:10;;;;;;;19.87;10.02;;;;;;;-0.03;100.00;99863.13;4355810;33;20048;-77
2022/01/25 05:40:46;;;;;;;20.05;9.88;;;;;;;-0.07;100.00;99870.53;4341535;33;20052;-77
2022/01/25 05:48:32;;;;;;;;;;;;;;;-0.02;100.00;99878.84;4341673;33;20069;-78
2022/01/25 05:51:04;;;;;;;;;;;;;;;-0.05;100.00;99879.16;4347220;33;20374;-79
2022/01/25 05:53:31;;;;;;;19.85;9.20;;;;;;;0.03;100.00;99882.81;4330806;33;19949;-77
2022/01/25 05:55:58;;;;;;;21.30;10.05;;;;;;;0.01;100.00;99879.50;4344559;33;20061;-80
2022/01/25 05:58:25;;;;;;;13.18;7.87;;;;;;;-0.05;100.00;99871.22;4325466;33;20043;-81
2022/01/25 06:00:52;;;;;;;18.27;8.80;;;;;;;-0.49;100.00;99810.50;4355922;32;20040;-78
2022/01/25 06:03:19;;;;;;;16.92;8.57;;;;;;;-0.20;100.00;99835.75;4356182;33;20405;-78
2022/01/25 06:05:45;;;;;;;26.12;8.75;;;;;;;0.04;100.00;99871.25;4355692;33;20031;-76
2022/01/25 06:08:12;;;;;;;18.62;8.30;;;;;;;0.02;100.00;99881.16;4351812;32;20058;-77
2022/01/25 06:10:39;;;;;;;17.62;9.30;;;;;;;0.02;100.00;99875.84;4344557;33;20065;-84
2022/01/25 06:13:06;;;;;;;16.48;7.55;;;;;;;-0.09;100.00;99867.22;4341772;33;20035;-85
2022/01/25 06:15:33;;;;;;;11.98;7.45;;;;;;;-0.05;100.00;99876.50;4342634;33;20426;-78
2022/01/25 06:18:00;;;;;;;16.80;8.35;;;;;;;-0.29;100.00;99829.56;4341719;33;20102;-79
2022/01/25 06:20:28;;;;;;;21.92;8.60;;;;;;;-0.02;100.00;99865.59;4354453;33;20043;-78
2022/01/25 06:22:55;;;;;;;13.35;7.32;;;;;;;-0.07;100.00;99867.88;4339054;33;20442;-79
2022/01/25 06:25:22;;;;;;;14.13;8.32;;;;;;;-0.20;100.00;99870.97;4355656;33;20851;-78
2022/01/25 06:27:48;;;;;;;16.83;9.05;;;;;;;-0.07;100.00;99873.19;4354244;33;20073;-77
2022/01/25 06:30:17;;;;;;;18.40;8.07;;;;;;;-0.33;100.00;99824.78;4342936;33;20044;-78
2022/01/25 06:32:46;;;;;;;13.15;7.60;;;;;;;-0.07;100.00;99865.22;4340236;33;20438;-83
2022/01/25 06:35:13;;;;;;;13.15;7.18;;;;;;;-0.15;100.00;99865.22;4329233;33;20036;-85
2022/01/25 06:37:40;;;;;;;17.50;7.78;;;;;;;-0.11;100.00;99881.59;4332401;33;20470;-78
2022/01/25 06:40:08;;;;;;;18.67;8.15;;;;;;;-0.33;100.00;99819.50;4353621;33;20051;-78
2022/01/25 06:42:36;;;;;;;17.17;8.45;;;;;;;-0.14;100.00;99858.94;4353686;33;20391;-76
2022/01/25 06:45:09;;;;;;;13.40;6.78;;;;;;;-0.11;100.00;99874.50;4339003;33;20040;-77
2022/01/25 06:47:36;;;;;;;16.10;7.07;;;;;;;-0.43;100.00;99820.44;4353903;33;20058;-77
2022/01/25 06:50:03;;;;;;;17.02;8.88;;;;;;;-0.10;100.00;99884.09;4341756;33;20044;-77
2022/01/25 06:52:29;;;;;;;16.23;8.35;;;;;;;-0.46;100.00;99818.13;4352162;33;20065;-76
2022/01/25 06:54:56;;;;;;;19.05;7.72;;;;;;;-0.08;100.00;99874.19;4352972;33;20032;-76
2022/01/25 06:57:22;;;;;;;13.93;7.97;;;;;;;-0.30;100.00;99850.91;4354268;32;20041;-76
2022/01/25 06:59:49;;;;;;;15.55;7.57;;;;;;;-0.09;100.00;99869.88;4352398;32;20131;-76
2022/01/25 07:02:15;;;;;;;13.68;8.05;;;;;;;-0.44;100.00;99818.78;4344486;32;20044;-80
2022/01/25 07:04:42;;;;;;;17.23;7.15;;;;;;;-0.14;100.00;99866.03;4337906;33;20433;-79
2022/01/25 07:07:08;;;;;;;16.55;6.90;;;;;;;-0.47;100.00;99829.69;4339830;33;20208;-77
2022/01/25 07:09:36;;;;;;;14.55;7.43;;;;;;;-0.55;100.00;99798.72;4340402;33;20032;-77
2022/01/25 07:12:04;;;;;;;14.15;7.75;;;;;;;-0.15;100.00;99870.50;4352212;33;20043;-77
2022/01/25 07:14:30;;;;;;;12.37;7.30;;;;;;;-0.46;100.00;99834.00;4353759;32;20024;-77
2022/01/25 07:16:57;;;;;;;15.07;7.30;;;;;;;-0.37;100.00;99837.50;4338512;33;20043;-77
2022/01/25 07:19:24;;;;;;;16.87;7.15;;;;;;;-0.08;100.00;99876.84;4362865;32;20032;-79
2022/01/25 07:21:50;;;;;;;16.23;7.60;;;;;;;-0.11;100.00;99877.16;4340216;33;20068;-76
2022/01/25 07:24:23;;;;;;;14.18;7.50;;;;;;;-0.17;100.00;99872.50;4353382;32;20065;-78
2022/01/25 07:26:50;;;;;;;15.90;9.27;;;;;;;-0.44;100.00;99834.66;4344824;33;20040;-77
2022/01/25 07:29:17;;;;;;;17.40;6.85;;;;;;;-0.07;100.00;99883.75;4340895;33;20074;-77
2022/01/25 07:31:45;;;;;;;18.42;8.95;;;;;;;-0.39;100.00;99842.94;4339445;33;20349;-77
2022/01/25 07:34:12;;;;;;;15.57;8.38;;;;;;;-0.11;100.00;99866.56;4349314;33;20044;-77
2022/01/25 07:36:42;;;;;;;19.55;9.48;;;;;;;-0.34;100.00;99849.59;4351684;33;20065;-81
2022/01/25 07:39:11;;;;;;;18.87;8.90;;;;;;;-0.20;100.00;99852.44;4354131;33;20043;-78
2022/01/25 07:41:38;;;;;;;20.10;9.75;;;;;;;-0.37;100.00;99825.09;4335733;33;20341;-78
2022/01/25 07:44:06;;;;;;;19.52;9.93;;;;;;;-0.09;100.00;99856.63;4338862;33;20160;-78
2022/01/25 07:46:33;;;;;;;19.25;9.40;;;;;;;-0.21;100.00;99863.19;4336688;33;20467;-79
2022/01/25 07:48:59;;;;;;;57.05;14.07;;;;;;;-0.39;100.00;99827.06;4326811;32;20052;-79
2022/01/25 07:51:26;;;;;;;23.27;11.73;;;;;;;-0.11;100.00;99850.69;4339178;33;20365;-78
2022/01/25 07:53:53;;;;;;;23.77;11.90;;;;;;;-0.08;100.00;99866.25;4338522;33;20054;-78
2022/01/25 07:56:20;;;;;;;34.72;13.27;;;;;;;-0.10;100.00;99870.84;4323736;33;20422;-78
2022/01/25 07:58:47;;;;;;;21.35;9.18;;;;;;;-0.01;100.00;99867.25;4337678;33;20035;-77
2022/01/25 08:01:15;;;;;;;19.48;10.07;;;;;;;-0.05;100.00;99857.13;4353442;33;20380;-77
2022/01/25 08:03:43;;;;;;;22.02;10.43;;;;;;;-0.13;100.00;99860.56;4352991;33;20388;-80
2022/01/25 08:06:10;;;;;;;25.27;9.85;;;;;;;-0.34;100.00;99812.53;4338887;33;20104;-79
2022/01/25 08:08:37;;;;;;;28.65;11.35;;;;;;;-0.02;100.00;99855.00;4351852;33;20082;-78
2022/01/25 08:11:04;;;;;;;29.35;11.57;;;;;;;0.01;100.00;99858.31;4353000;33;20051;-77
2022/01/25 08:13:30;;;;;;;28.05;13.00;;;;;;;-0.06;100.00;99848.37;4352847;32;20035;-79
2022/01/25 08:15:56;;;;;;;26.58;11.05;;;;;;;0.04;100.00;99842.13;4352021;33;20111;-78
2022/01/25 08:18:24;;;;;;;22.62;10.15;;;;;;;-0.16;100.00;99800.03;4339021;32;20095;-79
2022/01/25 08:20:50;;;;;;;19.55;9.38;;;;;;;-0.30;100.00;99787.41;4351024;33;20079;-77
2022/01/25 08:23:16;;;;;;;23.55;10.93;;;;;;;-0.28;100.00;99803.97;4353419;33;20051;-81
2022/01/25 08:25:43;;;;;;;28.95;11.77;;;;;;;0.08;100.00;99848.72;4352885;32;20317;-79
2022/01/25 08:28:10;;;;;;;22.37;10.52;;;;;;;0.06;100.00;99834.84;4352781;33;20118;-82
2022/01/25 08:30:36;;;;;;;23.65;11.98;;;;;;;0.10;100.00;99831.69;4356059;32;20543;-86
2022/01/25 08:33:03;;;;;;;24.87;10.85;;;;;;;0.05;100.00;99846.41;4340652;33;20098;-76
2022/01/25 08:35:30;;;;;;;29.08;10.70;;;;;;;0.13;100.00;99825.25;4352387;33;20048;-79
2022/01/25 08:37:56;;;;;;;22.27;10.32;;;;;;;-0.23;100.00;99778.66;4338665;32;20020;-78
2022/01/25 08:40:23;;;;;;;25.02;11.27;;;;;;;0.07;100.00;99815.31;4351513;33;20508;-79
2022/01/25 08:42:50;;;;;;;30.77;11.57;;;;;;;-0.26;100.00;99770.22;4340336;33;20020;-77
2022/01/25 08:45:17;;;;;;;25.83;12.37;;;;;;;0.08;100.00;99832.84;4351911;33;20024;-78
2022/01/25 08:47:44;;;;;;;29.58;12.23;;;;;;;0.07;100.00;99823.25;4355970;32;20445;-77
2022/01/25 08:50:12;;;;;;;26.50;12.73;;;;;;;-0.22;100.00;99784.81;4344065;33;20071;-77
2022/01/25 08:52:39;;;;;;;33.88;11.23;;;;;;;-0.33;100.00;99774.50;4354191;33;20368;-77
2022/01/25 08:55:06;;;;;;;27.45;9.45;;;;;;;0.01;100.00;99831.84;4339165;33;20050;-80
2022/01/25 08:57:33;;;;;;;25.48;11.10;;;;;;;-0.01;100.00;99824.88;4353303;33;20072;-78
2022/01/25 08:59:59;;;;;;;30.05;11.15;;;;;;;0.02;100.00;99812.28;4350036;32;20096;-77
2022/01/25 09:02:26;;;;;;;30.27;12.10;;;;;;;-0.26;100.00;99756.97;4355664;32;20065;-78
2022/01/25 09:04:53;;;;;;;28.75;12.13;;;;;;;0.14;100.00;99816.31;4355288;32;20036;-79
2022/01/25 09:07:19;;;;;;;28.25;12.60;;;;;;;-0.20;100.00;99766.94;4347955;32;20071;-79
2022/01/25 09:09:46;;;;;;;26.83;10.85;;;;;;;0.07;100.00;99804.72;4351739;32;20066;-79
2022/01/25 09:12:13;;;;;;;22.77;11.68;;;;;;;-0.08;100.00;99775.38;4338968;33;20421;-81
2022/01/25 09:14:39;;;;;;;25.08;10.13;;;;;;;-0.04;100.00;99793.44;4339177;32;20070;-78
2022/01/25 09:17:09;;;;;;;24.45;11.95;;;;;;;-0.16;100.00;99749.75;4350840;33;20054;-79
2022/01/25 09:19:38;;;;;;;28.52;12.60;;;;;;;0.18;100.00;99796.47;4352990;33;20075;-78
2022/01/25 09:22:06;;;;;;;28.02;10.25;;;;;;;-0.25;100.00;99763.94;4354733;33;20083;-78
2022/01/25 09:24:33;;;;;;;28.60;13.13;;;;;;;0.08;100.00;99806.34;4353701;33;20036;-78
2022/01/25 09:27:02;;;;;;;24.87;11.40;;;;;;;-0.21;100.00;99749.37;4356876;32;20031;-88
2022/01/25 09:29:28;;;;;;;25.92;12.70;;;;;;;0.16;100.00;99785.19;4354370;33;20051;-78
2022/01/25 09:31:55;;;;;;;30.50;11.00;;;;;;;0.13;100.00;99782.88;4353868;32;20082;-78
2022/01/25 09:34:23;;;;;;;36.92;13.55;;;;;;;0.11;100.00;99784.84;4352667;33;20071;-79
2022/01/25 09:36:50;;;;;;;34.38;14.27;;;;;;;0.07;100.00;99778.25;4352689;32;20065;-87
2022/01/25 09:39:17;;;;;;;31.83;13.13;;;;;;;0.13;100.00;99788.19;4354768;33;20059;-79
2022/01/25 09:41:44;;;;;;;33.22;12.52;;;;;;;0.11;100.00;99774.25;4354413;33;20425;-77
2022/01/25 09:44:11;;;;;;;29.85;12.37;;;;;;;0.21;100.00;99785.53;4354147;32;20468;-74
2022/01/25 09:46:39;;;;;;;30.62;13.05;;;;;;;0.16;100.00;99777.22;4333389;32;20031;-80
2022/01/25 09:49:06;;;;;;;26.33;11.38;;;;;;;0.13;100.00;99782.88;4356510;32;20357;-74
2022/01/25 09:51:35;;;;;;;27.40;12.75;;;;;;;-0.24;100.00;99728.53;4357600;32;20040;-75
2022/01/25 09:54:02;;;;;;;30.60;13.85;;;;;;;0.14;100.00;99773.94;4342903;32;20044;-75
2022/01/25 09:56:28;;;;;;;23.85;11.80;;;;;;;0.15;100.00;99780.91;4348458;32;20039;-74
2022/01/25 09:58:55;;;;;;;26.62;12.18;;;;;;;0.22;100.00;99776.59;4348697;32;20069;-74
2022/01/25 10:01:30;;;;;;;25.00;10.18;;;;;;;0.11;100.00;99777.75;4343086;32;20079;-74
2022/01/25 10:03:59;;;;;;;27.45;11.95;;;;;;;0.11;100.00;99753.06;4354813;32;20044;-75
2022/01/25 10:06:31;;;;;;;24.55;10.98;;;;;;;0.21;100.00;99769.66;4353288;33;20047;-79
2022/01/25 10:08:59;;;;;;;34.25;11.90;;;;;;;0.26;100.00;99785.88;4355664;32;20055;-75
2022/01/25 10:11:26;;;;;;;27.13;10.88;;;;;;;0.28;100.00;99797.13;4354501;33;20039;-75
2022/01/25 10:13:57;;;;;;;21.58;10.70;;;;;;;0.07;100.00;99751.75;4338564;33;20521;-75
2022/01/25 10:16:35;;;;;;;21.87;10.15;;;;;;;0.23;100.00;99794.16;4352091;33;20351;-80
2022/01/25 10:19:05;;;;;;;22.52;10.60;;;;;;;-0.05;100.00;99749.44;4343485;33;20081;-78
2022/01/25 10:21:37;;;;;;;26.65;11.75;;;;;;;0.07;100.00;99752.56;4352452;33;20127;-76
2022/01/25 10:24:15;;;;;;;22.17;9.82;;;;;;;0.31;100.00;99804.75;4353110;33;20040;-80
2022/01/25 10:26:43;;;;;;;26.58;10.63;;;;;;;0.24;100.00;99795.81;4341973;33;20079;-73
2022/01/25 10:29:23;;;;;;;21.87;9.95;;;;;;;0.10;100.00;99777.91;4361669;32;20035;-74
2022/01/25 10:31:56;;;;;;;37.72;12.88;;;;;;;0.28;100.00;99781.22;4360836;32;20455;-78
2022/01/25 10:34:28;;;;;;;26.67;9.85;;;;;;;0.17;100.00;99782.38;4356293;32;20080;-74
2022/01/25 10:36:57;;;;;;;;;;;;;;;-0.30;100.00;99692.12;4342107;33;20051;-73
2022/01/25 10:39:29;;;;;;;23.75;9.65;;;;;;;0.31;100.00;99791.50;4355996;33;19974;-73
2022/01/25 10:42:06;;;;;;;;;;;;;;;0.33;100.00;99773.59;4362273;32;20031;-74
2022/01/25 10:44:49;;;;;;;22.05;8.95;;;;;;;0.35;100.00;99787.53;4352457;32;19959;-74
2022/01/25 10:47:37;;;;;;;20.15;9.10;;;;;;;0.39;100.00;99781.91;4353537;32;20043;-79
2022/01/25 10:50:19;;;;;;;20.05;8.77;;;;;;;0.06;100.00;99731.56;4355007;33;20040;-74
2022/01/25 10:52:47;;;;;;;24.02;10.05;;;;;;;0.41;100.00;99771.97;4356475;32;20032;-75
2022/01/25 10:55:16;;;;;;;18.92;8.93;;;;;;;0.39;100.00;99771.31;4352777;32;20103;-74
2022/01/25 10:57:55;;;;;;;22.08;9.32;;;;;;;0.11;100.00;99731.88;4367072;32;20043;-75
2022/01/25 11:00:22;;;;;;;20.75;9.15;;;;;;;0.45;100.00;99766.19;4347073;32;20091;-76
2022/01/25 11:02:52;;;;;;;25.37;11.45;;;;;;;0.35;100.00;99750.44;4351599;33;20047;-76
2022/01/25 11:05:19;;;;;;;27.00;10.15;;;;;;;0.25;100.00;99719.81;4353913;33;20056;-79
2022/01/25 11:07:46;;;;;;;25.52;11.12;;;;;;;0.46;100.00;99751.09;4342748;32;20069;-74
2022/01/25 11:10:19;;;;;;;28.62;11.38;;;;;;;0.50;100.00;99763.84;4343059;32;20032;-75
2022/01/25 11:13:01;;;;;;;30.67;11.43;;;;;;;0.57;100.00;99763.19;4350019;32;20044;-76
2022/01/25 11:15:27;;;;;;;25.20;11.57;;;;;;;0.35;100.00;99718.66;4359556;32;20483;-74
2022/01/25 11:17:54;;;;;;;27.95;11.50;;;;;;;0.12;100.00;99685.88;4341566;33;20050;-74
2022/01/25 11:20:20;;;;;;;26.75;11.73;;;;;;;0.63;100.00;99758.03;4355035;33;20028;-76
2022/01/25 11:22:48;;;;;;;22.95;9.90;;;;;;;0.56;100.00;99751.78;4354734;33;20036;-80
2022/01/25 11:25:18;;;;;;;32.88;13.10;;;;;;;0.43;100.00;99724.94;4365849;32;20061;-74
2022/01/25 11:27:46;;;;;;;22.17;10.20;;;;;;;0.52;100.00;99745.94;4348930;33;20129;-74
2022/01/25 11:30:21;;;;;;;24.70;10.93;;;;;;;0.31;100.00;99708.56;4356880;32;20069;-76
2022/01/25 11:32:50;;;;;;;19.48;9.15;;;;;;;0.54;100.00;99733.38;4355417;32;20425;-80
2022/01/25 11:35:23;;;;;;;23.65;8.95;;;;;;;0.61;100.00;99738.03;4354698;32;20950;-76
2022/01/25 11:37:50;;;;;;;21.23;10.52;;;;;;;0.23;100.00;99692.69;4342267;32;20032;-74
2022/01/25 11:40:22;;;;;;;21.17;9.48;;;;;;;0.55;100.00;99755.41;4347224;32;20050;-76
2022/01/25 11:42:50;;;;;;;23.87;10.25;;;;;;;0.65;100.00;99734.03;4336244;33;20433;-76
2022/01/25 11:45:22;;;;;;;23.12;10.00;;;;;;;0.62;100.00;99745.78;4341265;33;20044;-75
2022/01/25 11:47:51;;;;;;;26.25;9.93;;;;;;;0.48;100.00;99701.41;4354793;33;20032;-74
2022/01/25 11:50:18;;;;;;;20.70;9.70;;;;;;;0.66;100.00;99741.81;4340889;33;20061;-76
2022/01/25 11:52:50;;;;;;;23.35;8.55;;;;;;;0.51;100.00;99709.03;4353755;33;20048;-78
2022/01/25 11:55:19;;;;;;;19.05;10.15;;;;;;;0.42;100.00;99707.41;4355448;32;20078;-75
2022/01/25 11:57:58;;;;;;;22.65;10.75;;;;;;;0.69;100.00;99743.31;4340857;33;20365;-74
2022/01/25 12:00:37;;;;;;;21.10;9.57;;;;;;;0.68;100.00;99739.81;4351608;32;20032;-76
2022/01/25 12:03:27;;;;;;;23.90;9.48;;;;;;;0.73;100.00;99741.97;4339103;32;20049;-74
2022/01/25 12:05:58;;;;;;;28.95;12.63;;;;;;;0.70;100.00;99759.03;4349240;32;20040;-75
2022/01/25 12:11:30;;;;;;;20.27;8.63;;;;;;;0.72;100.00;99756.22;4351416;32;20077;-75
2022/01/25 12:14:22;;;;;;;21.50;7.78;;;;;;;0.73;100.00;99747.25;4349730;32;20036;-76
2022/01/25 12:16:52;;;;;;;22.40;9.48;;;;;;;0.68;100.00;99734.50;4355699;32;20052;-75
2022/01/25 12:19:35;;;;;;;19.05;8.77;;;;;;;0.72;100.00;99746.44;4339783;32;20478;-75
2022/01/25 12:22:04;;;;;;;14.68;7.57;;;;;;;0.78;100.00;99738.81;4350962;32;20094;-75
2022/01/25 12:24:48;;;;;;;20.67;8.40;;;;;;;0.77;100.00;99737.97;4352828;32;20513;-75
2022/01/25 12:27:38;;;;;;;26.58;10.90;;;;;;;0.74;100.00;99737.50;4350975;32;20081;-75
2022/01/25 12:30:23;;;;;;;14.87;7.43;;;;;;;0.72;100.00;99725.22;4352764;33;20418;-75
2022/01/25 12:33:03;;;;;;;17.12;8.10;;;;;;;0.79;100.00;99735.16;4351454;33;20060;-75
2022/01/25 12:35:50;;;;;;;18.40;9.15;;;;;;;0.80;100.00;99736.81;4338714;33;20066;-75
2022/01/25 12:38:25;;;;;;;18.15;8.30;;;;;;;0.82;100.00;99732.19;4336473;33;20078;-79
2022/01/25 12:41:01;;;;;;;19.60;8.07;;;;;;;0.83;100.00;99726.72;4337043;33;20077;-76
2022/01/25 12:43:30;;;;;;;21.55;8.15;;;;;;;0.89;100.00;99725.19;4338968;33;20092;-77
2022/01/25 12:46:10;;;;;;;20.00;9.43;;;;;;;0.88;100.00;99729.66;4337776;33;20062;-75
2022/01/25 12:48:46;;;;;;;15.63;8.23;;;;;;;0.58;100.00;99688.00;4355243;33;20343;-74
2022/01/25 12:51:18;;;;;;;16.85;8.05;;;;;;;0.57;100.00;99684.50;4340196;33;20096;-74
2022/01/25 12:53:47;;;;;;;17.80;8.77;;;;;;;0.80;100.00;99718.25;4339652;33;20040;-74
2022/01/25 12:56:21;;;;;;;19.17;9.18;;;;;;;0.48;100.00;99681.06;4354865;33;20069;-74
2022/01/25 12:58:53;;;;;;;20.83;9.73;;;;;;;0.73;100.00;99710.16;4341648;33;20036;-73
2022/01/25 13:01:24;;;;;;;19.80;10.13;;;;;;;0.52;100.00;99681.53;4354386;33;20044;-79
2022/01/25 13:03:55;;;;;;;20.90;9.27;;;;;;;0.78;100.00;99729.00;4339952;32;20082;-74
2022/01/25 13:06:24;;;;;;;15.50;6.97;;;;;;;0.52;100.00;99681.53;4340505;33;20545;-75
2022/01/25 13:09:04;;;;;;;17.48;7.90;;;;;;;0.72;100.00;99725.22;4349545;32;20044;-74
2022/01/25 13:11:46;;;;;;;25.05;10.25;;;;;;;0.80;100.00;99711.13;4363231;32;20546;-80
2022/01/25 13:17:15;;;;;;;26.45;9.93;;;;;;;0.80;100.00;99718.25;4326063;32;20299;-74
2022/01/25 13:19:47;;;;;;;28.73;11.57;;;;;;;0.76;100.00;99714.28;4353520;33;20043;-74
2022/01/25 13:22:18;;;;;;;22.62;10.13;;;;;;;0.50;100.00;99662.34;4347540;32;20042;-74
2022/01/25 13:25:14;;;;;;;30.88;10.48;;;;;;;0.48;100.00;99659.00;4343810;33;20059;-75
2022/01/25 13:27:51;;;;;;;15.88;9.15;;;;;;;0.76;100.00;99709.00;4341516;32;20079;-74
2022/01/25 13:30:45;;;;;;;20.17;9.10;;;;;;;0.69;100.00;99704.37;4355817;33;20070;-75
2022/01/25 13:33:14;;;;;;;27.00;11.05;;;;;;;0.79;100.00;99704.16;4357589;32;20078;-74